createdAt,value
2023-03-23T15:59:00.178Z,18.22
2023-03-23T16:01:52.312Z,18.18
2023-03-23T16:04:30.068Z,18.14
2023-03-23T16:07:25.322Z,18.12
2023-03-23T16:10:20.887Z,18.10
2023-03-23T16:13:12.985Z,18.05
2023-03-23T16:16:05.926Z,18.02
2023-03-23T16:18:43.337Z,17.98
2023-03-23T16:21:35.547Z,17.94
2023-03-23T16:24:27.530Z,17.91
2023-03-23T16:27:21.481Z,17.89
2023-03-23T16:30:19.086Z,17.86
2023-03-23T16:33:11.287Z,17.83
2023-03-23T16:36:03.910Z,17.81
2023-03-23T16:38:55.949Z,17.77
2023-03-23T16:41:47.883Z,17.74
2023-03-23T16:44:29.919Z,17.70
2023-03-23T16:47:23.350Z,17.66
2023-03-23T16:49:58.110Z,17.63
2023-03-23T16:52:50.435Z,17.60
2023-03-23T16:55:47.631Z,17.57
2023-03-23T16:58:39.782Z,17.52
2023-03-23T17:01:31.887Z,17.50
2023-03-23T17:04:23.933Z,17.47
2023-03-23T17:07:16.388Z,17.44
2023-03-23T17:10:10.764Z,17.41
2023-03-23T17:12:51.961Z,17.39
2023-03-23T17:15:46.913Z,17.36
2023-03-23T17:18:39.509Z,17.35
2023-03-23T17:21:32.144Z,17.32
2023-03-23T17:24:25.009Z,17.27
2023-03-23T17:27:20.325Z,17.24
2023-03-23T17:30:13.883Z,17.20
2023-03-23T17:33:05.980Z,17.15
2023-03-23T17:35:58.187Z,17.11
2023-03-23T17:38:50.442Z,17.08
2023-03-23T17:41:42.581Z,17.05
2023-03-23T17:44:34.800Z,17.01
2023-03-23T17:47:26.971Z,16.97
2023-03-23T17:50:19.064Z,16.94
2023-03-23T17:53:11.273Z,16.90
2023-03-23T17:56:03.341Z,16.88
2023-03-23T17:58:46.732Z,16.86
2023-03-23T18:01:38.795Z,16.82
2023-03-23T18:04:13.816Z,16.78
2023-03-23T18:07:05.803Z,16.74
2023-03-23T18:10:01.856Z,16.68
2023-03-23T18:12:53.952Z,16.62
2023-03-23T18:15:47.060Z,16.60
2023-03-23T18:18:39.303Z,16.54
2023-03-23T18:21:16.645Z,16.48
2023-03-23T18:24:09.635Z,16.43
2023-03-23T18:27:02.204Z,16.40
2023-03-23T18:29:54.386Z,16.34
2023-03-23T18:32:46.801Z,16.30
2023-03-23T18:35:38.985Z,16.26
2023-03-23T18:38:32.046Z,16.24
2023-03-23T18:41:24.557Z,16.21
2023-03-23T18:44:16.581Z,16.19
2023-03-23T18:47:09.081Z,16.18
2023-03-23T18:50:01.457Z,16.16
2023-03-23T18:52:42.805Z,16.15
2023-03-23T18:55:14.744Z,16.13
2023-03-23T18:58:06.774Z,16.11
2023-03-23T19:01:03.017Z,16.09
2023-03-23T19:03:55.196Z,16.07
2023-03-23T19:06:47.656Z,16.05
2023-03-23T19:09:41.065Z,16.02
2023-03-23T19:12:33.027Z,16.01
2023-03-23T19:15:25.427Z,15.98
2023-03-23T19:18:17.466Z,15.96
2023-03-23T19:21:14.474Z,15.94
2023-03-23T19:23:52.210Z,15.95
2023-03-23T19:26:46.536Z,15.94
2023-03-23T19:29:38.738Z,15.93
2023-03-23T19:32:30.779Z,15.90
2023-03-23T19:35:22.971Z,15.87
2023-03-23T19:38:14.971Z,15.87
2023-03-23T19:41:07.628Z,15.89
2023-03-23T19:43:50.049Z,15.92
2023-03-23T19:46:42.178Z,15.96
2023-03-23T19:49:34.235Z,15.99
2023-03-23T19:52:26.464Z,15.99
2023-03-23T19:55:18.894Z,15.99
2023-03-23T19:58:11.292Z,16.00
2023-03-23T20:01:04.192Z,16.01
2023-03-23T20:03:59.770Z,16.01
2023-03-23T20:06:35.466Z,16.02
2023-03-23T20:09:27.516Z,16.02
2023-03-23T20:12:19.566Z,16.00
2023-03-23T20:15:12.196Z,16.01
2023-03-23T20:18:04.861Z,16.01
2023-03-23T20:21:04.487Z,16.01
2023-03-23T20:23:58.611Z,15.99
2023-03-23T20:26:49.788Z,16.00
2023-03-23T20:29:33.561Z,15.97
2023-03-23T20:32:25.866Z,15.97
2023-03-23T20:35:17.973Z,15.98
2023-03-23T20:38:10.690Z,16.00
2023-03-23T20:41:05.241Z,16.01
2023-03-23T20:43:57.471Z,16.03
2023-03-23T20:46:51.121Z,16.02
2023-03-23T20:49:43.083Z,16.03
2023-03-23T20:52:45.358Z,16.02
2023-03-23T20:55:37.322Z,16.00
2023-03-23T20:58:29.715Z,16.00
2023-03-23T21:01:22.594Z,15.99
2023-03-23T21:04:19.740Z,15.99
2023-03-23T21:07:12.715Z,15.98
2023-03-23T21:10:04.901Z,15.97
2023-03-23T21:12:57.272Z,15.96
2023-03-23T21:15:50.806Z,15.94
2023-03-23T21:18:43.971Z,15.92
2023-03-23T21:21:36.129Z,15.90
2023-03-23T21:24:31.227Z,15.88
2023-03-23T21:27:23.590Z,15.88
2023-03-23T21:30:16.029Z,15.88
2023-03-23T21:33:08.535Z,15.85
2023-03-23T21:36:01.202Z,15.84
2023-03-23T21:38:50.342Z,15.84
2023-03-23T21:41:42.832Z,15.85
2023-03-23T21:44:35.870Z,15.85
2023-03-23T21:47:30.243Z,15.85
2023-03-23T21:50:22.277Z,15.86
2023-03-23T21:53:18.253Z,15.84
2023-03-23T21:56:12.401Z,15.82
2023-03-23T21:59:04.749Z,15.80
2023-03-23T22:01:58.463Z,15.80
2023-03-23T22:04:52.136Z,15.79
2023-03-23T22:07:46.350Z,15.78
2023-03-23T22:10:40.550Z,15.78
2023-03-23T22:13:34.830Z,15.75
2023-03-23T22:16:26.102Z,15.76
2023-03-23T22:19:18.661Z,15.73
2023-03-23T22:22:10.846Z,15.73
2023-03-23T22:25:03.285Z,15.72
2023-03-23T22:27:56.392Z,15.71
2023-03-23T22:30:34.020Z,15.69
2023-03-23T22:33:26.232Z,15.67
2023-03-23T22:36:18.855Z,15.65
2023-03-23T22:39:11.497Z,15.62
2023-03-23T22:42:03.631Z,15.60
2023-03-23T22:44:55.888Z,15.57
2023-03-23T22:47:48.118Z,15.53
2023-03-23T22:50:40.280Z,15.49
2023-03-23T22:53:32.894Z,15.42
2023-03-23T22:56:25.243Z,15.35
2023-03-23T22:59:19.347Z,15.27
2023-03-23T23:02:11.507Z,15.21
2023-03-23T23:05:03.673Z,15.15
2023-03-23T23:07:55.772Z,15.09
2023-03-23T23:10:50.623Z,15.04
2023-03-23T23:13:23.430Z,15.00
2023-03-23T23:15:58.402Z,14.96
2023-03-23T23:18:52.504Z,14.92
2023-03-23T23:21:44.772Z,14.87
2023-03-23T23:24:37.102Z,14.82
2023-03-23T23:27:29.441Z,14.80
2023-03-23T23:30:22.185Z,14.78
2023-03-23T23:33:14.891Z,14.76
2023-03-23T23:36:08.953Z,14.74
2023-03-23T23:39:03.494Z,14.72
2023-03-23T23:41:55.753Z,14.71
2023-03-23T23:44:47.859Z,14.70
2023-03-23T23:47:40.127Z,14.70
2023-03-23T23:50:32.831Z,14.68
2023-03-23T23:53:25.666Z,14.69
2023-03-23T23:56:19.334Z,14.68
2023-03-23T23:59:11.722Z,14.68
